首页
METAR-TAF:

METAR-TAF

机场 :

土伦, 法国

纬度: 43-06N, 经度: 006-09E, 海拔: 3米

当前天气观测

该预报发布于40分钟前的18:30 UTC
风速5节,风向北转西北
温度 10°C
湿度 53%
气压 1024 hPa
能见度10公里或以上
1500米以下无云,无积雨云

METAR: LFTH 181830Z AUTO 34005KT CAVOK 10/01 Q1024 NOSIG

时间: 20:10 (19:10 UTC)

预报

该预报发布于5小时和10分钟前的14:00 UTC
预报有效从18日的 15点(UTC)到 19日的 15点(UTC)
风速10节,风向
能见度10公里或以上
1500米以下无云,无积雨云
成为
从 18日的 18点(UTC)到 18日的 19点(UTC)
风速3节,风向多变
成为
从 19日的 03点(UTC)到 19日的 04点(UTC)
风速10节,风向西北,有时为20节阵风
成为
从 19日的 05点(UTC)到 19日的 06点(UTC)
风速15节,风向西转西北,有时为25节阵风
短暂存在
从 19日的 09点(UTC)到 19日的 15点(UTC)
风速20节,风向西转西北,有时为30节阵风

TAF: LFTH 181400Z 1815/1915 35010KT CAVOK BECMG 1818/1819 VRB03KT BECMG 1903/1904 32010G20KT BECMG 1905/1906 30015G25KT TEMPO 1909/1915 30020G30KT

超过4000个机场的气象观测和天气预报(METAR&TAF报告)。

可查询的气象台以黄色和红色小点在地图上表示。

将鼠标移到小点上方,可查看气象台名称。

然后点击查看天气观测和预报。

如需切换地图:点击带黑十字的绿色按钮放大地图;点击带横线的绿色按钮缩小地图;或者点击绿色箭头查看邻近地区的地图。


METAR-TAF: